sensor_id;sensor_type;location;lat;lon;timestamp;pressure;altitude;pressure_sealevel;temperature;humidity
15267;BME280;7735;49.144;8.668;2023-06-24T00:00:20;100991.13;;;22.54;51.21
15267;BME280;7735;49.144;8.668;2023-06-24T00:02:46;100998.41;;;22.49;51.31
15267;BME280;7735;49.144;8.668;2023-06-24T00:05:13;100997.81;;;22.42;51.49
15267;BME280;7735;49.144;8.668;2023-06-24T00:07:39;100997.09;;;22.39;51.61
15267;BME280;7735;49.144;8.668;2023-06-24T00:10:11;100992.63;;;22.39;51.69
15267;BME280;7735;49.144;8.668;2023-06-24T00:12:38;100997.09;;;22.39;51.58
15267;BME280;7735;49.144;8.668;2023-06-24T00:15:07;100990.06;;;22.38;51.46
15267;BME280;7735;49.144;8.668;2023-06-24T00:17:35;100984.84;;;22.34;51.56
15267;BME280;7735;49.144;8.668;2023-06-24T00:20:02;100991.94;;;22.36;51.56
15267;BME280;7735;49.144;8.668;2023-06-24T00:22:34;100988.44;;;22.33;51.40
15267;BME280;7735;49.144;8.668;2023-06-24T00:25:01;100990.16;;;22.34;51.35
15267;BME280;7735;49.144;8.668;2023-06-24T00:27:29;100995.47;;;22.34;51.39
15267;BME280;7735;49.144;8.668;2023-06-24T00:29:55;100993.75;;;22.33;51.38
15267;BME280;7735;49.144;8.668;2023-06-24T00:32:22;101002.66;;;22.32;51.38
15267;BME280;7735;49.144;8.668;2023-06-24T00:34:48;100997.47;;;22.29;51.25
15267;BME280;7735;49.144;8.668;2023-06-24T00:37:15;100993.34;;;22.22;51.41
15267;BME280;7735;49.144;8.668;2023-06-24T00:39:42;100998.13;;;22.14;51.65
15267;BME280;7735;49.144;8.668;2023-06-24T00:42:08;100991.44;;;22.04;51.82
15267;BME280;7735;49.144;8.668;2023-06-24T00:44:37;100989.84;;;22.00;52.06
15267;BME280;7735;49.144;8.668;2023-06-24T00:47:05;100996.06;;;21.99;52.02
15267;BME280;7735;49.144;8.668;2023-06-24T00:49:33;100989.97;;;21.97;52.03
15267;BME280;7735;49.144;8.668;2023-06-24T00:52:00;101003.28;;;21.95;52.04
15267;BME280;7735;49.144;8.668;2023-06-24T00:54:26;100988.25;;;21.96;52.01
15267;BME280;7735;49.144;8.668;2023-06-24T00:56:56;100988.25;;;21.96;52.10
15267;BME280;7735;49.144;8.668;2023-06-24T00:59:23;100992.63;;;21.97;52.08
15267;BME280;7735;49.144;8.668;2023-06-24T01:01:55;100983.94;;;21.93;52.03
15267;BME280;7735;49.144;8.668;2023-06-24T01:04:23;100995.47;;;21.92;52.05
15267;BME280;7735;49.144;8.668;2023-06-24T01:06:50;100998.22;;;21.89;51.95
15267;BME280;7735;49.144;8.668;2023-06-24T01:09:17;100995.66;;;21.88;52.06
15267;BME280;7735;49.144;8.668;2023-06-24T01:11:43;101000.16;;;21.86;52.11
15267;BME280;7735;49.144;8.668;2023-06-24T01:14:10;100993.19;;;21.83;52.25
15267;BME280;7735;49.144;8.668;2023-06-24T01:16:40;100995.88;;;21.82;52.22
15267;BME280;7735;49.144;8.668;2023-06-24T01:19:33;100997.66;;;21.83;52.07
15267;BME280;7735;49.144;8.668;2023-06-24T01:22:15;101000.31;;;21.81;52.13
15267;BME280;7735;49.144;8.668;2023-06-24T01:24:54;101004.91;;;21.77;52.05
15267;BME280;7735;49.144;8.668;2023-06-24T01:27:52;100998.97;;;21.71;52.21
15267;BME280;7735;49.144;8.668;2023-06-24T01:33:28;101003.66;;;21.64;52.44
15267;BME280;7735;49.144;8.668;2023-06-24T01:35:58;101002.78;;;21.64;52.28
15267;BME280;7735;49.144;8.668;2023-06-24T01:38:33;100999.25;;;21.65;52.22
15267;BME280;7735;49.144;8.668;2023-06-24T01:41:03;101001.94;;;21.63;52.18
15267;BME280;7735;49.144;8.668;2023-06-24T01:43:32;101006.31;;;21.64;52.02
15267;BME280;7735;49.144;8.668;2023-06-24T01:46:01;101000.22;;;21.62;52.14
15267;BME280;7735;49.144;8.668;2023-06-24T01:48:34;100995.91;;;21.60;52.01
15267;BME280;7735;49.144;8.668;2023-06-24T01:51:06;100988.88;;;21.59;51.95
15267;BME280;7735;49.144;8.668;2023-06-24T01:53:37;100995.16;;;21.56;52.07
15267;BME280;7735;49.144;8.668;2023-06-24T01:56:06;100992.69;;;21.52;52.07
15267;BME280;7735;49.144;8.668;2023-06-24T01:58:35;100992.75;;;21.50;52.07
15267;BME280;7735;49.144;8.668;2023-06-24T02:01:02;100980.38;;;21.51;52.10
15267;BME280;7735;49.144;8.668;2023-06-24T02:03:31;100983.00;;;21.51;52.15
15267;BME280;7735;49.144;8.668;2023-06-24T02:05:59;100994.41;;;21.53;52.04
15267;BME280;7735;49.144;8.668;2023-06-24T02:08:29;100986.53;;;21.51;52.02
15267;BME280;7735;49.144;8.668;2023-06-24T02:10:57;100984.00;;;21.48;51.88
15267;BME280;7735;49.144;8.668;2023-06-24T02:13:25;100986.88;;;21.42;51.93
15267;BME280;7735;49.144;8.668;2023-06-24T02:15:53;100978.31;;;21.35;52.00
15267;BME280;7735;49.144;8.668;2023-06-24T02:18:21;100985.59;;;21.30;52.15
15267;BME280;7735;49.144;8.668;2023-06-24T02:20:50;100978.69;;;21.25;52.19
15267;BME280;7735;49.144;8.668;2023-06-24T02:23:17;100983.28;;;21.19;52.40
15267;BME280;7735;49.144;8.668;2023-06-24T02:25:45;100982.63;;;21.14;52.54
15267;BME280;7735;49.144;8.668;2023-06-24T02:28:14;100982.78;;;21.10;52.47
15267;BME280;7735;49.144;8.668;2023-06-24T02:30:41;100988.25;;;21.05;52.73
15267;BME280;7735;49.144;8.668;2023-06-24T02:33:09;100988.34;;;21.02;52.73
15267;BME280;7735;49.144;8.668;2023-06-24T02:35:37;100988.47;;;20.99;52.61
15267;BME280;7735;49.144;8.668;2023-06-24T02:38:05;100999.00;;;21.01;52.85
15267;BME280;7735;49.144;8.668;2023-06-24T02:40:32;100988.34;;;21.02;52.74
15267;BME280;7735;49.144;8.668;2023-06-24T02:42:59;100994.53;;;21.03;52.54
15267;BME280;7735;49.144;8.668;2023-06-24T02:45:26;100987.69;;;20.97;52.67
15267;BME280;7735;49.144;8.668;2023-06-24T02:47:55;100993.91;;;20.96;52.60
15267;BME280;7735;49.144;8.668;2023-06-24T02:50:22;100988.69;;;20.95;52.77
15267;BME280;7735;49.144;8.668;2023-06-24T02:52:50;100995.75;;;20.94;52.72
15267;BME280;7735;49.144;8.668;2023-06-24T02:55:19;100996.78;;;20.90;52.78
15267;BME280;7735;49.144;8.668;2023-06-24T02:57:46;100988.94;;;20.87;52.82
15267;BME280;7735;49.144;8.668;2023-06-24T03:00:15;100993.47;;;20.83;52.89
15267;BME280;7735;49.144;8.668;2023-06-24T03:02:43;100998.03;;;20.80;52.93
15267;BME280;7735;49.144;8.668;2023-06-24T03:05:10;100991.88;;;20.79;53.07
15267;BME280;7735;49.144;8.668;2023-06-24T03:07:37;100998.94;;;20.79;53.25
15267;BME280;7735;49.144;8.668;2023-06-24T03:10:05;100995.50;;;20.77;53.07
15267;BME280;7735;49.144;8.668;2023-06-24T03:12:33;100999.00;;;20.77;53.13
15267;BME280;7735;49.144;8.668;2023-06-24T03:15:00;100996.47;;;20.74;53.01
15267;BME280;7735;49.144;8.668;2023-06-24T03:17:27;100990.34;;;20.72;53.04
15267;BME280;7735;49.144;8.668;2023-06-24T03:19:53;101007.22;;;20.70;53.16
15267;BME280;7735;49.144;8.668;2023-06-24T03:22:21;101007.31;;;20.67;53.01
15267;BME280;7735;49.144;8.668;2023-06-24T03:24:48;101010.88;;;20.65;52.97
15267;BME280;7735;49.144;8.668;2023-06-24T03:27:16;101015.31;;;20.65;53.04
15267;BME280;7735;49.144;8.668;2023-06-24T03:29:45;101018.00;;;20.63;53.18
15267;BME280;7735;49.144;8.668;2023-06-24T03:32:11;101017.09;;;20.64;53.26
15267;BME280;7735;49.144;8.668;2023-06-24T03:34:38;101019.75;;;20.64;53.18
15267;BME280;7735;49.144;8.668;2023-06-24T03:37:05;101021.59;;;20.62;53.14
15267;BME280;7735;49.144;8.668;2023-06-24T03:39:31;101019.88;;;20.61;53.04
15267;BME280;7735;49.144;8.668;2023-06-24T03:41:58;101024.38;;;20.58;53.31
15267;BME280;7735;49.144;8.668;2023-06-24T03:44:24;101020.94;;;20.56;53.20
15267;BME280;7735;49.144;8.668;2023-06-24T03:46:52;101022.03;;;20.50;53.13
15267;BME280;7735;49.144;8.668;2023-06-24T03:49:19;101020.50;;;20.43;53.18
15267;BME280;7735;49.144;8.668;2023-06-24T03:51:45;101028.47;;;20.42;53.31
15267;BME280;7735;49.144;8.668;2023-06-24T03:54:12;101025.78;;;20.43;53.23
15267;BME280;7735;49.144;8.668;2023-06-24T03:56:39;101031.94;;;20.44;53.24
15267;BME280;7735;49.144;8.668;2023-06-24T03:59:06;101038.09;;;20.44;53.36
15267;BME280;7735;49.144;8.668;2023-06-24T04:01:33;101038.09;;;20.44;53.39
15267;BME280;7735;49.144;8.668;2023-06-24T04:04:03;101040.69;;;20.46;53.45
15267;BME280;7735;49.144;8.668;2023-06-24T04:06:29;101039.81;;;20.45;53.50
15267;BME280;7735;49.144;8.668;2023-06-24T04:08:56;101037.19;;;20.45;53.63
15267;BME280;7735;49.144;8.668;2023-06-24T04:11:22;101036.25;;;20.46;53.52
15267;BME280;7735;49.144;8.668;2023-06-24T04:13:50;101041.50;;;20.48;53.64
15267;BME280;7735;49.144;8.668;2023-06-24T04:16:16;101043.19;;;20.50;53.62
15267;BME280;7735;49.144;8.668;2023-06-24T04:18:43;101036.91;;;20.53;53.76
15267;BME280;7735;49.144;8.668;2023-06-24T04:21:11;101042.09;;;20.56;53.64
15267;BME280;7735;49.144;8.668;2023-06-24T04:23:37;101041.16;;;20.58;53.49
15267;BME280;7735;49.144;8.668;2023-06-24T04:26:04;101045.47;;;20.61;53.44
15267;BME280;7735;49.144;8.668;2023-06-24T04:28:31;101038.31;;;20.63;53.49
15267;BME280;7735;49.144;8.668;2023-06-24T04:30:57;101042.63;;;20.65;53.38
15267;BME280;7735;49.144;8.668;2023-06-24T04:33:24;101047.94;;;20.65;53.41
15267;BME280;7735;49.144;8.668;2023-06-24T04:35:50;101048.97;;;20.61;53.41
15267;BME280;7735;49.144;8.668;2023-06-24T04:38:19;101051.63;;;20.61;53.26
15267;BME280;7735;49.144;8.668;2023-06-24T04:40:45;101049.78;;;20.63;53.28
15267;BME280;7735;49.144;8.668;2023-06-24T04:43:12;101056.78;;;20.64;53.28
15267;BME280;7735;49.144;8.668;2023-06-24T04:45:39;101054.19;;;20.63;53.37
15267;BME280;7735;49.144;8.668;2023-06-24T04:48:05;101055.94;;;20.64;53.42
15267;BME280;7735;49.144;8.668;2023-06-24T04:50:32;101052.41;;;20.63;53.57
15267;BME280;7735;49.144;8.668;2023-06-24T04:52:58;101060.25;;;20.67;53.52
15267;BME280;7735;49.144;8.668;2023-06-24T04:55:28;101061.06;;;20.69;53.58
15267;BME280;7735;49.144;8.668;2023-06-24T04:57:56;101064.59;;;20.69;53.54
15267;BME280;7735;49.144;8.668;2023-06-24T05:00:23;101064.53;;;20.71;53.65
15267;BME280;7735;49.144;8.668;2023-06-24T05:02:50;101065.34;;;20.73;53.73
15267;BME280;7735;49.144;8.668;2023-06-24T05:05:17;101069.63;;;20.75;53.57
15267;BME280;7735;49.144;8.668;2023-06-24T05:07:44;101069.63;;;20.77;53.69
15267;BME280;7735;49.144;8.668;2023-06-24T05:10:10;101075.72;;;20.79;53.55
15267;BME280;7735;49.144;8.668;2023-06-24T05:12:38;101071.22;;;20.81;53.85
15267;BME280;7735;49.144;8.668;2023-06-24T05:15:06;101070.22;;;20.85;53.85
15267;BME280;7735;49.144;8.668;2023-06-24T05:17:32;101074.47;;;20.89;53.69
15267;BME280;7735;49.144;8.668;2023-06-24T05:19:59;101071.69;;;20.92;53.80
15267;BME280;7735;49.144;8.668;2023-06-24T05:22:26;101075.00;;;20.99;53.86
15267;BME280;7735;49.144;8.668;2023-06-24T05:24:52;101081.88;;;21.04;53.79
15267;BME280;7735;49.144;8.668;2023-06-24T05:27:19;101074.59;;;21.09;53.68
15267;BME280;7735;49.144;8.668;2023-06-24T05:29:47;101075.38;;;21.13;53.66
15267;BME280;7735;49.144;8.668;2023-06-24T05:32:13;101070.81;;;21.16;53.87
15267;BME280;7735;49.144;8.668;2023-06-24T05:34:42;101068.91;;;21.20;53.84
15267;BME280;7735;49.144;8.668;2023-06-24T05:37:09;101081.19;;;21.23;53.96
15267;BME280;7735;49.144;8.668;2023-06-24T05:39:35;101077.56;;;21.25;53.94
15267;BME280;7735;49.144;8.668;2023-06-24T05:42:02;101083.63;;;21.29;54.15
15267;BME280;7735;49.144;8.668;2023-06-24T05:44:29;101084.41;;;21.32;54.19
15267;BME280;7735;49.144;8.668;2023-06-24T05:46:57;101077.19;;;21.36;54.48
15267;BME280;7735;49.144;8.668;2023-06-24T05:49:24;101075.31;;;21.39;54.41
15267;BME280;7735;49.144;8.668;2023-06-24T05:51:51;101078.63;;;21.44;54.59
15267;BME280;7735;49.144;8.668;2023-06-24T05:54:17;101079.41;;;21.48;54.71
15267;BME280;7735;49.144;8.668;2023-06-24T05:56:44;101076.63;;;21.51;54.81
15267;BME280;7735;49.144;8.668;2023-06-24T05:59:10;101080.88;;;21.55;54.60
15267;BME280;7735;49.144;8.668;2023-06-24T06:01:37;101079.84;;;21.59;54.45
15267;BME280;7735;49.144;8.668;2023-06-24T06:04:05;101080.66;;;21.61;54.37
15267;BME280;7735;49.144;8.668;2023-06-24T06:06:31;101081.34;;;21.66;54.29
15267;BME280;7735;49.144;8.668;2023-06-24T06:08:59;101087.31;;;21.71;54.25
15267;BME280;7735;49.144;8.668;2023-06-24T06:11:25;101076.56;;;21.76;54.14
15267;BME280;7735;49.144;8.668;2023-06-24T06:13:52;101073.66;;;21.82;54.17
15267;BME280;7735;49.144;8.668;2023-06-24T06:16:18;101077.84;;;21.88;53.93
15267;BME280;7735;49.144;8.668;2023-06-24T06:18:45;101078.53;;;21.93;53.67
15267;BME280;7735;49.144;8.668;2023-06-24T06:21:13;101073.91;;;21.98;53.11
15267;BME280;7735;49.144;8.668;2023-06-24T06:23:40;101072.88;;;22.02;52.61
15267;BME280;7735;49.144;8.668;2023-06-24T06:26:06;101076.19;;;22.09;52.29
15267;BME280;7735;49.144;8.668;2023-06-24T06:28:33;101076.84;;;22.14;52.03
15267;BME280;7735;49.144;8.668;2023-06-24T06:31:08;101070.44;;;22.19;51.49
15267;BME280;7735;49.144;8.668;2023-06-24T06:33:35;101065.00;;;22.22;51.63
15267;BME280;7735;49.144;8.668;2023-06-24T06:36:01;101063.03;;;22.27;51.59
15267;BME280;7735;49.144;8.668;2023-06-24T06:38:29;101068.91;;;22.34;51.41
15267;BME280;7735;49.144;8.668;2023-06-24T06:40:56;101067.81;;;22.40;51.18
15267;BME280;7735;49.144;8.668;2023-06-24T06:43:23;101075.53;;;22.46;51.17
15267;BME280;7735;49.144;8.668;2023-06-24T06:45:49;101070.88;;;22.51;50.78
15267;BME280;7735;49.144;8.668;2023-06-24T06:48:16;101069.81;;;22.55;50.90
15267;BME280;7735;49.144;8.668;2023-06-24T06:50:45;101067.81;;;22.60;51.00
15267;BME280;7735;49.144;8.668;2023-06-24T06:53:11;101057.75;;;22.68;51.03
15267;BME280;7735;49.144;8.668;2023-06-24T06:55:39;101073.16;;;23.01;50.58
15267;BME280;7735;49.144;8.668;2023-06-24T06:58:08;101063.69;;;23.14;49.93
15267;BME280;7735;49.144;8.668;2023-06-24T07:00:34;101060.19;;;23.13;49.87
15267;BME280;7735;49.144;8.668;2023-06-24T07:03:01;101062.84;;;23.13;49.75
15267;BME280;7735;49.144;8.668;2023-06-24T07:05:27;101061.19;;;23.11;49.82
15267;BME280;7735;49.144;8.668;2023-06-24T07:07:54;101066.50;;;23.11;50.20
15267;BME280;7735;49.144;8.668;2023-06-24T07:10:21;101062.13;;;23.10;50.07
15267;BME280;7735;49.144;8.668;2023-06-24T07:12:48;101062.13;;;23.10;50.14
15267;BME280;7735;49.144;8.668;2023-06-24T07:15:16;101065.47;;;23.15;50.38
15267;BME280;7735;49.144;8.668;2023-06-24T07:17:44;101066.16;;;23.18;50.03
15267;BME280;7735;49.144;8.668;2023-06-24T07:20:11;101059.06;;;23.19;50.05
15267;BME280;7735;49.144;8.668;2023-06-24T07:22:38;101057.19;;;23.21;50.29
15267;BME280;7735;49.144;8.668;2023-06-24T07:25:04;101060.63;;;23.23;50.50
15267;BME280;7735;49.144;8.668;2023-06-24T07:27:31;101070.13;;;23.29;50.37
15267;BME280;7735;49.144;8.668;2023-06-24T07:29:59;101068.13;;;23.34;50.46
15267;BME280;7735;49.144;8.668;2023-06-24T07:32:26;101072.28;;;23.39;50.40
15267;BME280;7735;49.144;8.668;2023-06-24T07:34:52;101068.56;;;23.43;50.69
15267;BME280;7735;49.144;8.668;2023-06-24T07:37:19;101070.13;;;23.48;50.42
15267;BME280;7735;49.144;8.668;2023-06-24T07:39:45;101062.81;;;23.53;50.25
15267;BME280;7735;49.144;8.668;2023-06-24T07:42:12;101060.78;;;23.58;49.52
15267;BME280;7735;49.144;8.668;2023-06-24T07:44:43;101061.50;;;23.63;49.60
15267;BME280;7735;49.144;8.668;2023-06-24T07:47:11;101062.16;;;23.68;49.65
15267;BME280;7735;49.144;8.668;2023-06-24T07:49:38;101060.28;;;23.70;48.75
15267;BME280;7735;49.144;8.668;2023-06-24T07:52:05;101063.56;;;23.75;48.09
15267;BME280;7735;49.144;8.668;2023-06-24T07:54:32;101060.78;;;23.78;48.17
15267;BME280;7735;49.144;8.668;2023-06-24T07:56:59;101054.28;;;23.84;47.99
15267;BME280;7735;49.144;8.668;2023-06-24T07:59:25;101055.09;;;23.86;48.33
15267;BME280;7735;49.144;8.668;2023-06-24T08:01:52;101054.19;;;23.85;48.68
15267;BME280;7735;49.144;8.668;2023-06-24T08:04:20;101054.06;;;23.88;47.49
15267;BME280;7735;49.144;8.668;2023-06-24T08:06:46;101055.50;;;23.95;46.69
15267;BME280;7735;49.144;8.668;2023-06-24T08:09:13;101055.19;;;24.01;47.11
15267;BME280;7735;49.144;8.668;2023-06-24T08:11:40;101050.44;;;24.08;46.94
15267;BME280;7735;49.144;8.668;2023-06-24T08:14:06;101056.31;;;24.15;47.10
15267;BME280;7735;49.144;8.668;2023-06-24T08:16:33;101058.81;;;24.18;46.97
15267;BME280;7735;49.144;8.668;2023-06-24T08:18:59;101048.03;;;24.21;46.76
15267;BME280;7735;49.144;8.668;2023-06-24T08:21:27;101046.84;;;24.26;46.18
15267;BME280;7735;49.144;8.668;2023-06-24T08:23:55;101045.72;;;24.32;46.15
15267;BME280;7735;49.144;8.668;2023-06-24T08:26:21;101044.63;;;24.36;45.97
15267;BME280;7735;49.144;8.668;2023-06-24T08:28:48;101043.44;;;24.42;45.53
15267;BME280;7735;49.144;8.668;2023-06-24T08:31:14;101040.53;;;24.46;45.33
15267;BME280;7735;49.144;8.668;2023-06-24T08:33:43;101045.72;;;24.49;44.75
15267;BME280;7735;49.144;8.668;2023-06-24T08:36:11;101040.06;;;24.55;44.46
15267;BME280;7735;49.144;8.668;2023-06-24T08:38:39;101039.00;;;24.60;45.04
15267;BME280;7735;49.144;8.668;2023-06-24T08:41:06;101035.38;;;24.61;45.62
15267;BME280;7735;49.144;8.668;2023-06-24T08:43:33;101029.97;;;24.62;45.41
15267;BME280;7735;49.144;8.668;2023-06-24T08:46:00;101033.41;;;24.64;45.24
15267;BME280;7735;49.144;8.668;2023-06-24T08:48:27;101034.25;;;24.65;45.42
15267;BME280;7735;49.144;8.668;2023-06-24T08:50:58;101035.84;;;24.69;44.35
15267;BME280;7735;49.144;8.668;2023-06-24T08:53:27;101034.69;;;24.74;43.62
15267;BME280;7735;49.144;8.668;2023-06-24T08:55:56;101040.69;;;24.78;43.22
15267;BME280;7735;49.144;8.668;2023-06-24T08:58:23;101028.00;;;24.83;43.04
15267;BME280;7735;49.144;8.668;2023-06-24T09:00:51;101032.22;;;24.87;42.38
15267;BME280;7735;49.144;8.668;2023-06-24T09:03:17;101028.44;;;24.91;42.64
15267;BME280;7735;49.144;8.668;2023-06-24T09:05:44;101037.06;;;24.96;42.29
15267;BME280;7735;49.144;8.668;2023-06-24T09:08:10;101033.22;;;25.02;41.40
15267;BME280;7735;49.144;8.668;2023-06-24T09:10:37;101030.50;;;25.03;41.74
15267;BME280;7735;49.144;8.668;2023-06-24T09:13:06;101031.16;;;25.07;41.43
15267;BME280;7735;49.144;8.668;2023-06-24T09:15:34;101025.69;;;25.10;41.37
15267;BME280;7735;49.144;8.668;2023-06-24T09:18:02;101022.84;;;25.13;41.33
15267;BME280;7735;49.144;8.668;2023-06-24T09:20:29;101013.81;;;25.16;41.13
15267;BME280;7735;49.144;8.668;2023-06-24T09:22:58;101011.00;;;25.19;41.25
15267;BME280;7735;49.144;8.668;2023-06-24T09:25:25;101008.94;;;25.24;41.23
15267;BME280;7735;49.144;8.668;2023-06-24T09:27:52;101006.91;;;25.29;40.86
15267;BME280;7735;49.144;8.668;2023-06-24T09:30:23;101007.47;;;25.34;40.83
15267;BME280;7735;49.144;8.668;2023-06-24T09:32:50;100999.34;;;25.37;41.30
15267;BME280;7735;49.144;8.668;2023-06-24T09:35:19;100997.34;;;25.40;40.53
15267;BME280;7735;49.144;8.668;2023-06-24T09:37:49;101002.34;;;25.47;39.84
15267;BME280;7735;49.144;8.668;2023-06-24T09:40:16;101006.31;;;25.55;38.92
15267;BME280;7735;49.144;8.668;2023-06-24T09:42:48;101000.59;;;25.61;39.31
15267;BME280;7735;49.144;8.668;2023-06-24T09:45:19;100993.22;;;25.66;38.64
15267;BME280;7735;49.144;8.668;2023-06-24T09:47:47;100996.66;;;25.68;38.74
15267;BME280;7735;49.144;8.668;2023-06-24T09:50:14;100989.44;;;25.70;38.63
15267;BME280;7735;49.144;8.668;2023-06-24T09:52:41;100980.50;;;25.72;38.34
15267;BME280;7735;49.144;8.668;2023-06-24T09:55:14;100983.66;;;25.78;38.05
15267;BME280;7735;49.144;8.668;2023-06-24T09:57:44;100985.31;;;25.81;37.81
15267;BME280;7735;49.144;8.668;2023-06-24T10:00:13;100977.88;;;25.86;37.94
15267;BME280;7735;49.144;8.668;2023-06-24T10:02:42;100988.31;;;25.90;37.64
15267;BME280;7735;49.144;8.668;2023-06-24T10:05:11;100979.25;;;25.93;37.64
15267;BME280;7735;49.144;8.668;2023-06-24T10:07:39;100977.25;;;25.96;37.32
15267;BME280;7735;49.144;8.668;2023-06-24T10:10:08;100971.75;;;26.00;36.66
15267;BME280;7735;49.144;8.668;2023-06-24T10:12:35;100973.19;;;26.05;36.69
15267;BME280;7735;49.144;8.668;2023-06-24T10:15:03;100969.22;;;26.12;36.13
15267;BME280;7735;49.144;8.668;2023-06-24T10:17:30;100964.38;;;26.19;35.63
15267;BME280;7735;49.144;8.668;2023-06-24T10:20:03;100971.25;;;26.23;35.82
15267;BME280;7735;49.144;8.668;2023-06-24T10:22:31;100960.19;;;26.29;35.45
15267;BME280;7735;49.144;8.668;2023-06-24T10:25:00;100956.16;;;26.38;35.27
15267;BME280;7735;49.144;8.668;2023-06-24T10:27:27;100954.72;;;26.46;35.55
15267;BME280;7735;49.144;8.668;2023-06-24T10:30:02;100942.94;;;26.50;35.38
15267;BME280;7735;49.144;8.668;2023-06-24T10:32:39;100944.34;;;26.56;35.41
15267;BME280;7735;49.144;8.668;2023-06-24T10:35:06;100937.09;;;26.58;35.67
15267;BME280;7735;49.144;8.668;2023-06-24T10:37:34;100937.66;;;26.63;35.88
15267;BME280;7735;49.144;8.668;2023-06-24T10:40:02;100939.19;;;26.67;35.88
15267;BME280;7735;49.144;8.668;2023-06-24T10:42:33;100937.09;;;26.72;35.67
15267;BME280;7735;49.144;8.668;2023-06-24T10:45:13;100937.75;;;26.76;35.23
15267;BME280;7735;49.144;8.668;2023-06-24T10:47:41;100929.56;;;26.79;34.92
15267;BME280;7735;49.144;8.668;2023-06-24T10:50:15;100929.47;;;26.80;34.69
15267;BME280;7735;49.144;8.668;2023-06-24T10:52:49;100918.41;;;26.87;34.18
15267;BME280;7735;49.144;8.668;2023-06-24T10:55:22;100915.50;;;26.90;34.13
15267;BME280;7735;49.144;8.668;2023-06-24T10:57:53;100914.56;;;26.91;34.45
15267;BME280;7735;49.144;8.668;2023-06-24T11:00:21;100909.97;;;26.93;34.45
15267;BME280;7735;49.144;8.668;2023-06-24T11:02:53;100900.97;;;26.94;34.78
15267;BME280;7735;49.144;8.668;2023-06-24T11:05:19;100899.28;;;26.93;34.68
15267;BME280;7735;49.144;8.668;2023-06-24T11:07:50;100901.09;;;26.92;34.47
15267;BME280;7735;49.144;8.668;2023-06-24T11:10:17;100899.50;;;27.04;34.37
15267;BME280;7735;49.144;8.668;2023-06-24T11:12:45;100894.59;;;27.37;34.25
15267;BME280;7735;49.144;8.668;2023-06-24T11:15:17;100892.44;;;27.57;33.36
15267;BME280;7735;49.144;8.668;2023-06-24T11:17:50;100896.78;;;27.72;33.04
15267;BME280;7735;49.144;8.668;2023-06-24T11:20:29;100885.69;;;27.78;32.64
15267;BME280;7735;49.144;8.668;2023-06-24T11:23:01;100877.44;;;27.81;32.28
15267;BME280;7735;49.144;8.668;2023-06-24T11:25:30;100890.63;;;27.84;32.20
15267;BME280;7735;49.144;8.668;2023-06-24T11:28:02;100889.56;;;27.87;32.70
15267;BME280;7735;49.144;8.668;2023-06-24T11:30:33;100886.88;;;27.87;32.39
15267;BME280;7735;49.144;8.668;2023-06-24T11:33:00;100883.34;;;27.86;32.33
15267;BME280;7735;49.144;8.668;2023-06-24T11:35:33;100885.69;;;27.91;31.95
15267;BME280;7735;49.144;8.668;2023-06-24T11:38:02;100870.72;;;28.01;31.66
15267;BME280;7735;49.144;8.668;2023-06-24T11:40:31;100873.94;;;28.06;31.46
15267;BME280;7735;49.144;8.668;2023-06-24T11:43:01;100875.44;;;28.10;31.56
15267;BME280;7735;49.144;8.668;2023-06-24T11:45:31;100879.63;;;28.14;30.56
15267;BME280;7735;49.144;8.668;2023-06-24T11:48:03;100857.88;;;28.19;30.44
15267;BME280;7735;49.144;8.668;2023-06-24T11:50:38;100868.25;;;28.23;30.76
15267;BME280;7735;49.144;8.668;2023-06-24T11:53:32;100870.44;;;28.31;30.29
15267;BME280;7735;49.144;8.668;2023-06-24T11:56:14;100867.34;;;28.37;30.34
15267;BME280;7735;49.144;8.668;2023-06-24T11:58:42;100867.13;;;28.40;30.15
15267;BME280;7735;49.144;8.668;2023-06-24T12:01:12;100858.84;;;28.43;30.18
15267;BME280;7735;49.144;8.668;2023-06-24T12:03:44;100858.72;;;28.58;30.08
15267;BME280;7735;49.144;8.668;2023-06-24T12:06:11;100857.53;;;28.62;30.17
15267;BME280;7735;49.144;8.668;2023-06-24T12:08:39;100847.59;;;28.64;31.00
15267;BME280;7735;49.144;8.668;2023-06-24T12:11:15;100841.44;;;28.62;30.96
15267;BME280;7735;49.144;8.668;2023-06-24T12:13:44;100834.91;;;28.66;30.70
15267;BME280;7735;49.144;8.668;2023-06-24T12:16:16;100834.69;;;28.69;30.54
15267;BME280;7735;49.144;8.668;2023-06-24T12:18:50;100840.91;;;28.69;30.85
15267;BME280;7735;49.144;8.668;2023-06-24T12:21:18;100838.09;;;28.71;31.01
15267;BME280;7735;49.144;8.668;2023-06-24T12:24:00;100834.47;;;28.72;30.30
15267;BME280;7735;49.144;8.668;2023-06-24T12:26:33;100821.81;;;28.74;30.01
15267;BME280;7735;49.144;8.668;2023-06-24T12:28:59;100829.84;;;28.74;30.46
15267;BME280;7735;49.144;8.668;2023-06-24T12:31:26;100825.47;;;28.73;30.79
15267;BME280;7735;49.144;8.668;2023-06-24T12:33:57;100830.59;;;28.76;30.89
15267;BME280;7735;49.144;8.668;2023-06-24T12:36:28;100817.94;;;28.78;30.52
15267;BME280;7735;49.144;8.668;2023-06-24T12:38:57;100816.75;;;28.82;30.08
15267;BME280;7735;49.144;8.668;2023-06-24T12:41:28;100812.56;;;28.91;30.16
15267;BME280;7735;49.144;8.668;2023-06-24T12:44:01;100812.22;;;28.95;30.55
15267;BME280;7735;49.144;8.668;2023-06-24T12:46:30;100813.19;;;28.94;30.05
15267;BME280;7735;49.144;8.668;2023-06-24T12:48:59;100805.03;;;28.96;30.47
15267;BME280;7735;49.144;8.668;2023-06-24T12:51:35;100805.69;;;28.99;29.71
15267;BME280;7735;49.144;8.668;2023-06-24T12:54:11;100803.28;;;29.08;29.52
15267;BME280;7735;49.144;8.668;2023-06-24T12:56:39;100806.69;;;29.10;30.00
15267;BME280;7735;49.144;8.668;2023-06-24T12:59:10;100795.13;;;29.09;29.71
15267;BME280;7735;49.144;8.668;2023-06-24T13:01:49;100795.84;;;29.11;29.57
15267;BME280;7735;49.144;8.668;2023-06-24T13:04:18;100797.09;;;29.42;28.73
15267;BME280;7735;49.144;8.668;2023-06-24T13:06:58;100797.69;;;29.70;28.74
15267;BME280;7735;49.144;8.668;2023-06-24T13:09:26;100795.22;;;29.67;28.29